createdAt,value
2022-09-11T00:02:07.147Z,100.00
2022-09-11T00:04:55.371Z,100.00
2022-09-11T00:07:42.294Z,100.00
2022-09-11T00:10:29.346Z,100.00
2022-09-11T00:13:21.500Z,100.00
2022-09-11T00:16:27.676Z,100.00
2022-09-11T00:19:19.055Z,100.00
2022-09-11T00:22:06.231Z,100.00
2022-09-11T00:24:53.307Z,100.00
2022-09-11T00:27:40.564Z,100.00
2022-09-11T00:30:28.377Z,100.00
2022-09-11T00:33:16.331Z,100.00
2022-09-11T00:36:10.770Z,100.00
2022-09-11T00:38:59.042Z,100.00
2022-09-11T00:41:46.554Z,100.00
2022-09-11T00:44:33.514Z,100.00
2022-09-11T00:47:20.693Z,100.00
2022-09-11T00:50:19.441Z,100.00
2022-09-11T00:53:10.163Z,100.00
2022-09-11T00:56:01.483Z,100.00
2022-09-11T00:58:51.023Z,100.00
2022-09-11T01:01:38.230Z,100.00
2022-09-11T01:04:25.667Z,100.00
2022-09-11T01:07:15.507Z,100.00
2022-09-11T01:10:07.121Z,100.00
2022-09-11T01:13:10.756Z,100.00
2022-09-11T01:16:13.106Z,100.00
2022-09-11T01:19:27.463Z,100.00
2022-09-11T01:22:33.233Z,100.00
2022-09-11T01:25:46.857Z,100.00
2022-09-11T01:28:44.311Z,100.00
2022-09-11T01:31:38.237Z,100.00
2022-09-11T01:34:38.102Z,100.00
2022-09-11T01:37:40.097Z,100.00
2022-09-11T01:40:39.494Z,100.00
2022-09-11T01:43:34.512Z,100.00
2022-09-11T01:46:23.798Z,100.00
2022-09-11T01:49:19.775Z,100.00
2022-09-11T01:52:10.771Z,100.00
2022-09-11T01:55:09.574Z,100.00
2022-09-11T01:58:03.314Z,100.00
2022-09-11T02:00:55.606Z,100.00
2022-09-11T02:03:51.762Z,100.00
2022-09-11T02:06:47.281Z,100.00
2022-09-11T02:09:57.586Z,100.00
2022-09-11T02:13:00.536Z,100.00
2022-09-11T02:15:55.674Z,100.00
2022-09-11T02:18:51.753Z,100.00
2022-09-11T02:21:39.251Z,100.00
2022-09-11T02:24:27.642Z,100.00
2022-09-11T02:27:19.550Z,100.00
2022-09-11T02:30:07.822Z,100.00
2022-09-11T02:32:55.785Z,100.00
2022-09-11T02:35:50.306Z,100.00
2022-09-11T02:38:53.293Z,100.00
2022-09-11T02:41:43.136Z,100.00
2022-09-11T02:44:40.455Z,100.00
2022-09-11T02:47:52.632Z,100.00
2022-09-11T02:50:45.613Z,100.00
2022-09-11T02:54:02.324Z,100.00
2022-09-11T02:56:58.990Z,100.00
2022-09-11T02:59:54.160Z,100.00
2022-09-11T03:02:43.392Z,100.00
2022-09-11T03:05:30.306Z,100.00
2022-09-11T03:08:17.572Z,100.00
2022-09-11T03:11:04.674Z,100.00
2022-09-11T03:13:52.186Z,100.00
2022-09-11T03:16:39.172Z,100.00
2022-09-11T03:19:26.258Z,100.00
2022-09-11T03:22:14.822Z,100.00
2022-09-11T03:25:02.254Z,100.00
2022-09-11T03:27:49.918Z,100.00
2022-09-11T03:30:37.186Z,100.00
2022-09-11T03:33:24.364Z,100.00
2022-09-11T03:36:12.870Z,100.00
2022-09-11T03:39:00.787Z,100.00
2022-09-11T03:41:47.801Z,100.00
2022-09-11T03:44:34.737Z,100.00
2022-09-11T03:47:22.353Z,100.00
2022-09-11T03:50:10.245Z,100.00
2022-09-11T03:52:58.298Z,100.00
2022-09-11T03:55:46.454Z,100.00
2022-09-11T03:58:33.609Z,100.00
2022-09-11T04:01:20.826Z,100.00
2022-09-11T04:04:08.578Z,100.00
2022-09-11T04:06:56.776Z,100.00
2022-09-11T04:09:43.788Z,100.00
2022-09-11T04:12:30.742Z,100.00
2022-09-11T04:15:18.661Z,100.00
2022-09-11T04:18:07.454Z,100.00
2022-09-11T04:20:54.570Z,100.00
2022-09-11T04:23:42.180Z,100.00
2022-09-11T04:26:32.033Z,100.00
2022-09-11T04:29:19.211Z,100.00
2022-09-11T04:32:06.225Z,100.00
2022-09-11T04:34:53.419Z,100.00
2022-09-11T04:37:41.007Z,100.00
2022-09-11T04:40:27.985Z,100.00
2022-09-11T04:43:16.242Z,100.00
2022-09-11T04:46:04.933Z,100.00
2022-09-11T04:48:55.613Z,100.00
2022-09-11T04:51:43.801Z,100.00
2022-09-11T04:54:30.746Z,100.00
2022-09-11T04:57:17.810Z,100.00
2022-09-11T05:00:06.984Z,100.00
2022-09-11T05:02:54.832Z,100.00
2022-09-11T05:05:41.838Z,100.00
2022-09-11T05:08:28.800Z,100.00
2022-09-11T05:11:17.781Z,100.00
2022-09-11T05:14:05.051Z,100.00
2022-09-11T05:16:53.018Z,100.00
2022-09-11T05:19:40.753Z,100.00
2022-09-11T05:22:27.715Z,100.00
2022-09-11T05:25:14.749Z,100.00
2022-09-11T05:28:01.925Z,100.00
2022-09-11T05:30:48.910Z,100.00
2022-09-11T05:33:35.895Z,100.00
2022-09-11T05:36:24.185Z,100.00
2022-09-11T05:39:11.150Z,100.00
2022-09-11T05:41:58.322Z,100.00
2022-09-11T05:44:47.803Z,100.00
2022-09-11T05:47:34.808Z,100.00
2022-09-11T05:50:22.178Z,100.00
2022-09-11T05:53:09.355Z,100.00
2022-09-11T05:55:56.653Z,100.00
2022-09-11T05:58:46.212Z,100.00
2022-09-11T06:01:33.167Z,100.00
2022-09-11T06:04:20.943Z,100.00
2022-09-11T06:07:07.850Z,100.00
2022-09-11T06:09:55.833Z,100.00
2022-09-11T06:12:45.445Z,100.00
2022-09-11T06:15:46.297Z,100.00
2022-09-11T06:18:33.689Z,100.00
2022-09-11T06:21:22.717Z,100.00
2022-09-11T06:24:10.042Z,100.00
2022-09-11T06:26:56.956Z,100.00
2022-09-11T06:29:47.298Z,100.00
2022-09-11T06:32:34.285Z,100.00
2022-09-11T06:35:21.495Z,100.00
2022-09-11T06:38:08.753Z,100.00
2022-09-11T06:40:56.759Z,100.00
2022-09-11T06:43:44.466Z,100.00
2022-09-11T06:46:31.555Z,100.00
2022-09-11T06:49:18.816Z,100.00
2022-09-11T06:52:06.137Z,100.00
2022-09-11T06:54:53.418Z,100.00
2022-09-11T06:57:42.208Z,100.00
2022-09-11T07:03:05.604Z,100.00
2022-09-11T07:05:52.610Z,100.00
2022-09-11T07:08:39.600Z,100.00
2022-09-11T07:11:28.131Z,100.00
2022-09-11T07:14:15.048Z,100.00
2022-09-11T07:17:02.889Z,100.00
2022-09-11T07:19:49.918Z,100.00
2022-09-11T07:22:36.974Z,100.00
2022-09-11T07:25:24.275Z,100.00
2022-09-11T07:28:12.285Z,100.00
2022-09-11T07:31:16.383Z,100.00
2022-09-11T07:34:07.066Z,100.00
2022-09-11T07:36:55.540Z,100.00
2022-09-11T07:39:42.527Z,100.00
2022-09-11T07:42:29.749Z,100.00
2022-09-11T07:45:22.072Z,100.00
2022-09-11T07:48:10.057Z,100.00
2022-09-11T07:50:58.295Z,100.00
2022-09-11T07:53:47.423Z,100.00
2022-09-11T07:56:36.183Z,100.00
2022-09-11T07:59:23.206Z,100.00
2022-09-11T08:02:11.775Z,100.00
2022-09-11T08:04:59.254Z,100.00
2022-09-11T08:07:46.724Z,100.00
2022-09-11T08:10:40.942Z,100.00
2022-09-11T08:13:27.969Z,100.00
2022-09-11T08:16:14.925Z,100.00
2022-09-11T08:19:02.934Z,100.00
2022-09-11T08:21:51.181Z,100.00
2022-09-11T08:24:38.565Z,100.00
2022-09-11T08:27:25.781Z,100.00
2022-09-11T08:30:13.510Z,100.00
2022-09-11T08:33:01.464Z,100.00
2022-09-11T08:35:49.017Z,100.00
2022-09-11T08:38:39.508Z,100.00
2022-09-11T08:41:36.597Z,100.00
2022-09-11T08:44:47.798Z,100.00
2022-09-11T08:47:36.990Z,100.00
2022-09-11T08:50:40.777Z,100.00
2022-09-11T08:53:30.818Z,100.00
2022-09-11T08:56:22.490Z,100.00
2022-09-11T08:59:21.470Z,100.00
2022-09-11T09:02:33.382Z,100.00
2022-09-11T09:05:46.026Z,100.00
2022-09-11T09:09:03.965Z,100.00
2022-09-11T09:11:57.207Z,100.00
2022-09-11T09:14:51.873Z,100.00
2022-09-11T09:18:06.212Z,100.00
2022-09-11T09:21:21.453Z,100.00
2022-09-11T09:24:19.448Z,100.00
2022-09-11T09:27:07.722Z,100.00
2022-09-11T09:29:55.972Z,100.00
2022-09-11T09:33:17.193Z,100.00
2022-09-11T09:36:25.127Z,100.00
2022-09-11T09:39:17.751Z,100.00
2022-09-11T09:42:42.156Z,100.00
2022-09-11T09:45:50.305Z,100.00
2022-09-11T09:48:39.872Z,100.00
2022-09-11T09:51:27.260Z,100.00
2022-09-11T09:54:16.888Z,100.00
2022-09-11T09:57:12.146Z,100.00
2022-09-11T10:00:05.651Z,100.00
2022-09-11T10:02:58.154Z,100.00
2022-09-11T10:05:45.621Z,100.00
2022-09-11T10:08:36.706Z,100.00
2022-09-11T10:11:29.026Z,100.00
2022-09-11T10:14:49.305Z,100.00
2022-09-11T10:17:29.552Z,100.00
2022-09-11T10:20:19.306Z,100.00
2022-09-11T10:23:23.659Z,100.00
2022-09-11T10:26:18.712Z,100.00
2022-09-11T10:29:14.935Z,100.00
2022-09-11T10:32:03.001Z,100.00
2022-09-11T10:34:51.354Z,100.00
2022-09-11T10:37:39.241Z,100.00
2022-09-11T10:40:26.302Z,100.00
2022-09-11T10:43:25.799Z,100.00
2022-09-11T10:46:18.861Z,100.00
2022-09-11T10:49:05.906Z,100.00
2022-09-11T10:52:02.180Z,100.00
2022-09-11T10:55:07.691Z,100.00
2022-09-11T10:57:59.365Z,100.00
2022-09-11T11:00:47.880Z,100.00
2022-09-11T11:03:35.277Z,100.00
2022-09-11T11:06:53.585Z,100.00
2022-09-11T11:10:01.294Z,100.00
2022-09-11T11:13:26.458Z,100.00
2022-09-11T11:16:23.271Z,100.00
2022-09-11T11:19:38.750Z,100.00
2022-09-11T11:22:50.545Z,100.00
2022-09-11T11:26:12.698Z,100.00
2022-09-11T11:29:08.366Z,100.00
2022-09-11T11:32:36.776Z,100.00
2022-09-11T11:35:28.501Z,100.00
2022-09-11T11:38:29.243Z,99.92
2022-09-11T11:41:24.081Z,100.00
2022-09-11T11:44:15.931Z,96.71
2022-09-11T11:47:06.906Z,92.74
2022-09-11T11:50:11.569Z,90.55
2022-09-11T11:53:24.985Z,88.79
2022-09-11T11:56:25.905Z,88.37
2022-09-11T11:59:35.100Z,87.20
2022-09-11T12:02:45.566Z,82.92
2022-09-11T12:05:34.343Z,79.44
2022-09-11T12:08:22.223Z,80.12
2022-09-11T12:11:12.927Z,80.65
2022-09-11T12:14:00.614Z,79.05
2022-09-11T12:16:48.581Z,77.33
2022-09-11T12:19:35.538Z,77.78
2022-09-11T12:22:34.462Z,77.21
2022-09-11T12:25:21.435Z,77.07
2022-09-11T12:28:26.040Z,78.19
2022-09-11T12:31:18.002Z,77.30
2022-09-11T12:34:25.060Z,75.62
2022-09-11T12:37:20.323Z,72.97
2022-09-11T12:40:23.263Z,74.21
2022-09-11T12:43:19.314Z,75.41
2022-09-11T12:46:29.844Z,74.02
2022-09-11T12:49:22.961Z,74.19
2022-09-11T12:52:24.961Z,74.66
2022-09-11T12:55:33.339Z,74.79
2022-09-11T12:58:20.218Z,76.21
2022-09-11T13:01:36.115Z,78.62
2022-09-11T13:04:27.233Z,78.74
2022-09-11T13:07:41.685Z,80.81
2022-09-11T13:10:38.103Z,85.04
2022-09-11T13:13:40.437Z,90.45
2022-09-11T13:16:31.370Z,96.78
2022-09-11T13:19:21.827Z,100.00
2022-09-11T13:22:27.733Z,100.00
2022-09-11T13:25:22.993Z,100.00
2022-09-11T13:28:21.381Z,100.00
2022-09-11T13:31:25.026Z,100.00
2022-09-11T13:34:17.322Z,100.00
2022-09-11T13:37:11.643Z,100.00
2022-09-11T13:40:00.653Z,100.00
2022-09-11T13:42:49.005Z,100.00
2022-09-11T13:45:36.017Z,100.00
2022-09-11T13:48:24.263Z,100.00
2022-09-11T13:51:19.527Z,100.00
2022-09-11T13:54:15.306Z,100.00
2022-09-11T13:57:03.279Z,100.00
2022-09-11T13:59:55.063Z,100.00
2022-09-11T14:02:50.434Z,100.00
2022-09-11T14:05:37.433Z,100.00
2022-09-11T14:08:35.488Z,100.00
2022-09-11T14:11:29.494Z,100.00
2022-09-11T14:14:27.015Z,100.00
2022-09-11T14:17:14.706Z,100.00
2022-09-11T14:20:02.918Z,100.00
2022-09-11T14:22:55.530Z,100.00
2022-09-11T14:26:03.886Z,100.00
2022-09-11T14:28:58.150Z,100.00
2022-09-11T14:31:47.443Z,100.00
2022-09-11T14:34:34.426Z,100.00
2022-09-11T14:37:22.800Z,100.00
2022-09-11T14:40:18.214Z,100.00
2022-09-11T14:43:05.839Z,100.00
2022-09-11T14:45:54.647Z,100.00
2022-09-11T14:48:44.090Z,100.00
2022-09-11T14:51:31.089Z,100.00
2022-09-11T14:54:20.662Z,100.00
2022-09-11T14:57:23.173Z,100.00
2022-09-11T15:00:13.967Z,100.00
2022-09-11T15:03:00.982Z,100.00
2022-09-11T15:05:57.698Z,100.00
2022-09-11T15:08:46.023Z,100.00
2022-09-11T15:11:37.397Z,100.00
2022-09-11T15:14:52.338Z,100.00
2022-09-11T15:17:36.199Z,100.00
2022-09-11T15:20:25.481Z,100.00
2022-09-11T15:23:12.669Z,100.00
2022-09-11T15:26:03.441Z,100.00
2022-09-11T15:28:51.801Z,100.00
2022-09-11T15:31:39.259Z,100.00
2022-09-11T15:34:27.332Z,100.00
2022-09-11T15:37:17.015Z,100.00
2022-09-11T15:40:04.532Z,100.00
2022-09-11T15:42:52.042Z,100.00
2022-09-11T15:45:42.674Z,100.00
2022-09-11T15:48:31.053Z,100.00
2022-09-11T15:51:20.828Z,100.00
2022-09-11T15:54:07.821Z,100.00
2022-09-11T15:56:55.126Z,100.00
2022-09-11T15:59:42.126Z,100.00
2022-09-11T16:02:29.129Z,100.00
2022-09-11T16:05:16.351Z,100.00
2022-09-11T16:08:03.555Z,100.00
2022-09-11T16:10:51.334Z,99.66
2022-09-11T16:13:40.708Z,94.51
2022-09-11T16:16:28.035Z,92.44
2022-09-11T16:19:19.386Z,92.96
2022-09-11T16:22:07.302Z,91.41
2022-09-11T16:24:54.569Z,92.49
2022-09-11T16:27:43.742Z,91.83
2022-09-11T16:30:43.282Z,88.46
2022-09-11T16:33:34.436Z,88.45
2022-09-11T16:36:21.597Z,89.47
2022-09-11T16:39:11.057Z,90.58
2022-09-11T16:41:58.042Z,90.90
2022-09-11T16:44:45.101Z,92.61
2022-09-11T16:47:32.619Z,93.33
2022-09-11T16:50:19.865Z,93.34
2022-09-11T16:53:06.956Z,94.29
2022-09-11T16:55:54.229Z,91.02
2022-09-11T16:58:45.242Z,91.80
2022-09-11T17:01:32.285Z,92.55
2022-09-11T17:04:19.231Z,94.87
2022-09-11T17:07:06.215Z,96.78
2022-09-11T17:09:53.148Z,98.63
2022-09-11T17:12:40.140Z,100.00
2022-09-11T17:15:28.545Z,100.00
2022-09-11T17:18:16.439Z,100.00
2022-09-11T17:21:06.023Z,100.00
2022-09-11T17:23:54.917Z,100.00
2022-09-11T17:26:42.393Z,100.00
2022-09-11T17:29:29.992Z,100.00
2022-09-11T17:32:29.318Z,100.00
2022-09-11T17:35:17.081Z,100.00
2022-09-11T17:38:04.109Z,100.00
2022-09-11T17:40:56.834Z,100.00
2022-09-11T17:43:44.422Z,100.00
2022-09-11T17:46:31.764Z,100.00
2022-09-11T17:49:18.873Z,100.00
2022-09-11T17:52:05.899Z,100.00
2022-09-11T17:54:53.303Z,100.00
2022-09-11T17:57:43.446Z,100.00
2022-09-11T18:00:30.586Z,100.00
2022-09-11T18:03:18.377Z,100.00
2022-09-11T18:06:23.010Z,100.00
2022-09-11T18:09:13.869Z,100.00
2022-09-11T18:12:03.186Z,100.00
2022-09-11T18:14:50.370Z,100.00
2022-09-11T18:17:38.359Z,100.00
2022-09-11T18:20:25.371Z,100.00
2022-09-11T18:23:12.729Z,100.00
2022-09-11T18:26:01.193Z,100.00
2022-09-11T18:28:49.741Z,100.00
2022-09-11T18:31:50.080Z,100.00
2022-09-11T18:34:37.456Z,100.00
2022-09-11T18:37:24.566Z,100.00
2022-09-11T18:40:11.610Z,100.00
2022-09-11T18:43:00.062Z,100.00
2022-09-11T18:45:47.205Z,100.00
2022-09-11T18:48:35.343Z,100.00
2022-09-11T18:51:22.406Z,100.00
2022-09-11T18:54:18.370Z,100.00
2022-09-11T18:57:05.377Z,100.00
2022-09-11T18:59:52.976Z,100.00
2022-09-11T19:02:39.925Z,100.00
2022-09-11T19:05:27.034Z,100.00
2022-09-11T19:08:14.132Z,100.00
2022-09-11T19:11:16.614Z,100.00
2022-09-11T19:14:06.532Z,100.00
2022-09-11T19:16:53.905Z,100.00
2022-09-11T19:19:41.550Z,100.00
2022-09-11T19:22:29.267Z,100.00
2022-09-11T19:25:16.279Z,100.00
2022-09-11T19:28:03.779Z,100.00
2022-09-11T19:31:00.591Z,100.00
2022-09-11T19:33:47.914Z,100.00
2022-09-11T19:36:36.119Z,100.00
2022-09-11T19:39:23.295Z,100.00
2022-09-11T19:42:10.259Z,100.00
2022-09-11T19:44:57.209Z,100.00
2022-09-11T19:47:44.132Z,100.00
2022-09-11T19:50:35.970Z,100.00
2022-09-11T19:53:24.287Z,100.00
2022-09-11T19:56:12.353Z,100.00
2022-09-11T19:59:00.293Z,100.00
2022-09-11T20:01:47.492Z,100.00
2022-09-11T20:04:34.526Z,100.00
2022-09-11T20:07:21.803Z,100.00
2022-09-11T20:10:09.889Z,100.00
2022-09-11T20:12:56.819Z,100.00
2022-09-11T20:15:43.937Z,100.00
2022-09-11T20:18:31.650Z,100.00
2022-09-11T20:21:18.955Z,100.00
2022-09-11T20:24:07.386Z,100.00
2022-09-11T20:26:54.917Z,100.00
2022-09-11T20:29:43.629Z,100.00
2022-09-11T20:32:31.129Z,100.00
2022-09-11T20:35:18.256Z,100.00
2022-09-11T20:38:05.340Z,100.00
2022-09-11T20:40:52.464Z,100.00
2022-09-11T20:43:40.265Z,100.00
2022-09-11T20:46:27.443Z,100.00
2022-09-11T20:49:15.300Z,100.00
2022-09-11T20:52:04.181Z,100.00
2022-09-11T20:54:52.383Z,100.00
2022-09-11T20:57:39.959Z,100.00
2022-09-11T21:00:27.505Z,100.00
2022-09-11T21:03:15.314Z,100.00
2022-09-11T21:06:09.752Z,100.00
2022-09-11T21:08:59.331Z,100.00
2022-09-11T21:11:47.765Z,100.00
2022-09-11T21:14:35.389Z,100.00
2022-09-11T21:17:22.722Z,100.00
2022-09-11T21:20:10.352Z,100.00
2022-09-11T21:22:57.782Z,100.00
2022-09-11T21:25:47.676Z,100.00
2022-09-11T21:28:37.496Z,100.00
2022-09-11T21:31:25.214Z,100.00
2022-09-11T21:34:12.429Z,100.00
2022-09-11T21:36:59.525Z,100.00
2022-09-11T21:39:46.689Z,100.00
2022-09-11T21:42:33.945Z,100.00
2022-09-11T21:45:21.182Z,100.00
2022-09-11T21:48:09.544Z,100.00
2022-09-11T21:50:56.717Z,100.00
2022-09-11T21:53:46.208Z,100.00
2022-09-11T21:56:33.867Z,100.00
2022-09-11T21:59:20.954Z,100.00
2022-09-11T22:02:09.314Z,100.00
2022-09-11T22:04:56.504Z,100.00
2022-09-11T22:07:43.840Z,100.00
2022-09-11T22:10:31.292Z,100.00
2022-09-11T22:13:19.215Z,100.00
2022-09-11T22:16:11.258Z,100.00
2022-09-11T22:18:58.343Z,100.00
2022-09-11T22:21:45.537Z,100.00
2022-09-11T22:24:32.651Z,100.00
2022-09-11T22:27:19.805Z,100.00
2022-09-11T22:30:07.759Z,100.00
2022-09-11T22:32:55.224Z,100.00
2022-09-11T22:35:42.991Z,100.00
2022-09-11T22:38:31.936Z,100.00
2022-09-11T22:41:19.775Z,100.00
2022-09-11T22:44:07.591Z,100.00
2022-09-11T22:46:54.765Z,100.00
2022-09-11T22:49:41.814Z,100.00
2022-09-11T22:52:28.847Z,100.00
2022-09-11T22:55:16.235Z,100.00
2022-09-11T22:58:03.289Z,100.00
2022-09-11T23:00:54.669Z,100.00
2022-09-11T23:03:41.916Z,100.00
2022-09-11T23:06:47.481Z,100.00
2022-09-11T23:09:34.556Z,100.00
2022-09-11T23:12:21.733Z,100.00
2022-09-11T23:15:10.772Z,100.00
2022-09-11T23:17:57.833Z,100.00
2022-09-11T23:20:44.994Z,100.00
2022-09-11T23:23:32.083Z,100.00
2022-09-11T23:26:19.672Z,100.00
2022-09-11T23:29:06.908Z,100.00
2022-09-11T23:31:56.723Z,100.00
2022-09-11T23:34:43.725Z,100.00
2022-09-11T23:37:30.715Z,100.00
2022-09-11T23:40:17.826Z,100.00
2022-09-11T23:43:04.864Z,100.00
2022-09-11T23:45:51.894Z,100.00
2022-09-11T23:48:39.213Z,100.00
2022-09-11T23:51:27.030Z,100.00
2022-09-11T23:54:13.962Z,100.00
2022-09-11T23:57:01.018Z,100.00
2022-09-11T23:59:47.966Z,100.00
